Time;durP1;ratioP1;P1;durP2;ratioP2;P2;SDS_P1;SDS_P2;PMS_P1;PMS_P2;Temp;Humidity;BMP_temperature;BMP_pressure;BME280_temperature;BME280_humidity;BME280_pressure;Samples;Min_cycle;Max_cycle;Signal;HPM_P1;HPM_P2
2021/05/23 00:00:36;;;;;;;2.85;1.95;;;11.10;82.20;;;;;;2080580;28;20025;-70
2021/05/23 00:01:36;;;;;;;3.40;1.80;;;11.10;82.40;;;;;;2081712;28;20083;-71
2021/05/23 00:02:40;;;;;;;3.72;2.00;;;11.00;82.50;;;;;;2097727;28;20039;-70
2021/05/23 00:03:41;;;;;;;2.70;1.70;;;11.00;82.80;;;;;;2097746;28;20071;-70
2021/05/23 00:04:42;;;;;;;3.20;1.77;;;11.00;82.90;;;;;;2097676;28;20029;-71
2021/05/23 00:05:45;;;;;;;2.55;1.60;;;11.00;83.10;;;;;;2097773;28;20487;-70
2021/05/23 00:06:45;;;;;;;3.15;1.88;;;11.00;83.10;;;;;;2096608;28;20059;-71
2021/05/23 00:07:59;;;;;;;2.75;1.55;;;10.90;83.20;;;;;;2088885;28;20158;-70
2021/05/23 00:08:59;;;;;;;3.05;1.80;;;10.90;83.30;;;;;;2090593;28;20033;-71
2021/05/23 00:10:00;;;;;;;2.70;1.70;;;10.90;83.60;;;;;;2097821;28;20039;-70
2021/05/23 00:11:06;;;;;;;2.28;1.73;;;10.90;83.80;;;;;;2097763;28;20111;-71
2021/05/23 00:12:10;;;;;;;3.63;2.03;;;10.80;83.80;;;;;;2088905;28;20804;-71
2021/05/23 00:13:13;;;;;;;4.38;1.83;;;10.80;84.00;;;;;;2080919;28;20029;-71
2021/05/23 00:14:14;;;;;;;2.85;1.70;;;10.80;84.20;;;;;;2088854;28;20028;-70
2021/05/23 00:15:37;;;;;;;3.10;1.80;;;10.80;84.40;;;;;;2088896;28;20035;-71
2021/05/23 00:16:37;;;;;;;3.45;1.92;;;10.80;84.70;;;;;;2097451;28;20056;-71
2021/05/23 00:17:38;;;;;;;2.53;1.80;;;10.80;84.70;;;;;;2097837;28;20047;-70
2021/05/23 00:18:45;;;;;;;3.03;1.88;;;10.70;84.70;;;;;;2088820;28;20056;-70
2021/05/23 00:19:46;;;;;;;4.07;2.08;;;10.80;84.70;;;;;;2089818;28;20040;-69
2021/05/23 00:20:47;;;;;;;2.53;1.80;;;10.70;84.60;;;;;;2097739;28;20039;-70
2021/05/23 00:21:48;;;;;;;2.63;1.60;;;10.70;84.70;;;;;;2097598;28;20032;-70
2021/05/23 00:22:49;;;;;;;2.40;1.73;;;10.70;85.00;;;;;;2097574;28;20033;-70
2021/05/23 00:23:50;;;;;;;3.55;1.90;;;10.70;85.20;;;;;;2098182;28;20041;-71
2021/05/23 00:24:50;;;;;;;3.75;1.92;;;10.70;85.30;;;;;;2090147;28;20503;-71
2021/05/23 00:25:52;;;;;;;2.25;1.77;;;10.70;85.40;;;;;;2089515;28;20036;-70
2021/05/23 00:26:53;;;;;;;2.95;1.80;;;10.70;85.40;;;;;;2098522;28;20430;-71
2021/05/23 00:27:54;;;;;;;3.60;1.77;;;10.70;85.60;;;;;;2081121;28;20033;-70
2021/05/23 00:28:54;;;;;;;2.60;1.80;;;10.60;85.50;;;;;;2081199;28;20025;-71
2021/05/23 00:29:55;;;;;;;3.42;1.90;;;10.60;85.50;;;;;;2098260;28;20095;-70
2021/05/23 00:30:56;;;;;;;3.38;1.98;;;10.60;85.30;;;;;;2089572;28;20492;-71
2021/05/23 00:31:56;;;;;;;5.00;3.33;;;10.60;85.30;;;;;;2088730;28;20059;-71
2021/05/23 00:32:57;;;;;;;6.18;3.63;;;10.70;85.40;;;;;;2097465;28;20082;-70
2021/05/23 00:33:58;;;;;;;5.63;3.33;;;10.70;85.40;;;;;;2097394;28;20029;-70
2021/05/23 00:34:59;;;;;;;3.80;2.65;;;10.70;85.50;;;;;;2097802;28;20507;-69
2021/05/23 00:35:59;;;;;;;3.88;2.30;;;10.70;85.30;;;;;;2097234;28;20056;-70
2021/05/23 00:37:03;;;;;;;3.30;2.13;;;10.70;85.40;;;;;;2096778;28;20395;-71
2021/05/23 00:38:05;;;;;;;4.15;2.25;;;10.70;85.30;;;;;;2097430;28;20016;-69
2021/05/23 00:39:06;;;;;;;2.60;1.90;;;10.70;85.30;;;;;;2088665;28;20064;-69
2021/05/23 00:40:08;;;;;;;3.22;2.08;;;10.70;85.30;;;;;;2088734;28;20439;-70
2021/05/23 00:41:08;;;;;;;2.90;1.90;;;10.70;85.30;;;;;;2088627;28;20032;-71
2021/05/23 00:42:11;;;;;;;4.78;1.90;;;10.60;85.50;;;;;;2088687;28;20116;-70
2021/05/23 00:43:14;;;;;;;3.00;1.90;;;10.60;85.70;;;;;;2088455;28;20041;-70
2021/05/23 00:44:15;;;;;;;3.80;2.00;;;10.60;85.80;;;;;;2088936;28;20475;-70
2021/05/23 00:45:18;;;;;;;3.70;2.08;;;10.60;85.90;;;;;;2088494;28;20037;-70
2021/05/23 00:46:18;;;;;;;3.78;1.90;;;10.60;86.30;;;;;;2088591;28;20037;-70
2021/05/23 00:47:19;;;;;;;3.17;1.95;;;10.60;86.30;;;;;;2097377;28;20020;-70
2021/05/23 00:48:22;;;;;;;3.20;1.90;;;10.60;86.40;;;;;;2097588;28;20035;-70
2021/05/23 00:49:22;;;;;;;2.50;1.85;;;10.60;86.30;;;;;;2088802;28;20029;-71
2021/05/23 00:50:25;;;;;;;3.42;2.00;;;10.60;86.30;;;;;;2080395;28;20097;-70
2021/05/23 00:51:25;;;;;;;2.67;1.90;;;10.50;86.20;;;;;;2088871;28;20029;-71
2021/05/23 00:52:27;;;;;;;2.63;1.80;;;10.50;86.40;;;;;;2097499;28;20039;-70
2021/05/23 00:53:28;;;;;;;2.88;1.75;;;10.50;86.50;;;;;;2097249;28;20084;-71
2021/05/23 00:54:29;;;;;;;3.40;1.90;;;10.50;86.70;;;;;;2097465;28;20107;-70
2021/05/23 00:55:31;;;;;;;3.38;1.85;;;10.50;86.80;;;;;;2097459;28;20662;-70
2021/05/23 00:56:31;;;;;;;3.33;1.77;;;10.50;86.70;;;;;;2088108;28;20420;-71
2021/05/23 00:57:57;;;;;;;3.08;2.00;;;10.40;86.30;;;;;;2092150;28;20036;-71
2021/05/23 00:58:57;;;;;;;2.92;2.08;;;10.40;85.80;;;;;;2097290;28;20024;-70
2021/05/23 00:59:58;;;;;;;2.53;1.90;;;10.50;85.70;;;;;;2088685;28;20029;-70
2021/05/23 01:00:59;;;;;;;4.75;2.45;;;10.40;85.50;;;;;;2088767;28;20060;-71
2021/05/23 01:01:59;;;;;;;3.42;2.10;;;10.50;85.60;;;;;;2097635;28;20075;-71
2021/05/23 01:03:01;;;;;;;2.70;1.83;;;10.50;85.70;;;;;;2097382;28;20039;-70
2021/05/23 01:04:02;;;;;;;3.72;2.00;;;10.50;85.90;;;;;;2097389;28;20031;-70
2021/05/23 01:05:03;;;;;;;3.40;2.00;;;10.50;86.20;;;;;;2097303;28;20665;-70
2021/05/23 01:06:08;;;;;;;2.10;1.90;;;10.50;86.30;;;;;;2096976;28;20039;-71
2021/05/23 01:07:09;;;;;;;3.08;1.90;;;10.50;85.90;;;;;;2097380;28;20469;-71
2021/05/23 01:08:09;;;;;;;3.22;1.75;;;10.50;86.00;;;;;;2097207;28;20025;-70
2021/05/23 01:09:10;;;;;;;2.78;1.75;;;10.50;86.00;;;;;;2097303;28;20091;-70
2021/05/23 01:10:24;;;;;;;3.22;1.77;;;10.50;85.80;;;;;;2097443;28;20154;-70
2021/05/23 01:11:45;;;;;;;2.80;1.83;;;10.60;85.50;;;;;;2097440;28;20028;-71
2021/05/23 01:12:59;;;;;;;3.00;1.80;;;10.60;85.00;;;;;;2055402;28;20035;-70
2021/05/23 01:14:00;;;;;;;4.28;1.80;;;10.60;84.80;;;;;;2097344;28;20024;-70
2021/05/23 01:15:02;;;;;;;3.22;1.63;;;10.60;84.80;;;;;;2097425;28;20085;-70
2021/05/23 01:16:17;;;;;;;2.95;1.88;;;10.60;84.80;;;;;;2097046;28;20036;-71
2021/05/23 01:17:21;;;;;;;2.85;1.70;;;10.60;84.80;;;;;;2097437;28;20383;-70
2021/05/23 01:18:25;;;;;;;2.90;1.70;;;10.60;85.10;;;;;;2097229;28;20032;-70
2021/05/23 01:19:40;;;;;;;3.45;1.90;;;10.60;85.10;;;;;;2097512;28;20044;-71
2021/05/23 01:20:57;;;;;;;2.95;1.67;;;10.50;85.20;;;;;;2088687;28;20764;-67
2021/05/23 01:22:10;;;;;;;2.33;1.60;;;10.50;85.50;;;;;;2091185;28;20882;-71
2021/05/23 01:23:24;;;;;;;1.80;1.60;;;10.50;85.60;;;;;;2098443;28;20040;-70
2021/05/23 01:24:35;;;;;;;2.63;1.60;;;10.50;85.70;;;;;;2100103;28;20120;-70
2021/05/23 01:25:38;;;;;;;2.92;1.83;;;10.40;85.90;;;;;;2099663;28;20078;-70
2021/05/23 01:26:52;;;;;;;2.70;1.63;;;10.40;85.90;;;;;;2099095;28;20175;-71
2021/05/23 01:27:53;;;;;;;1.50;1.40;;;10.40;85.90;;;;;;2092407;28;20080;-70
2021/05/23 01:29:02;;;;;;;1.88;1.50;;;10.40;86.00;;;;;;2088659;28;20934;-71
2021/05/23 01:30:09;;;;;;;2.55;1.63;;;10.40;86.30;;;;;;2097567;28;20025;-71
2021/05/23 01:31:13;;;;;;;2.33;1.70;;;10.40;86.30;;;;;;2088696;28;20035;-71
2021/05/23 01:32:13;;;;;;;2.00;1.40;;;10.40;86.50;;;;;;2088799;28;20023;-71
2021/05/23 01:33:20;;;;;;;2.60;1.50;;;10.30;86.60;;;;;;2097112;28;20031;-70
2021/05/23 01:34:22;;;;;;;2.78;1.73;;;10.30;86.70;;;;;;2097372;28;20023;-70
2021/05/23 01:35:30;;;;;;;1.80;1.42;;;10.40;86.80;;;;;;2088338;28;20134;-70
2021/05/23 01:36:35;;;;;;;2.97;1.50;;;10.30;86.60;;;;;;2080138;28;20037;-71
2021/05/23 01:37:36;;;;;;;1.85;1.55;;;10.30;86.70;;;;;;2088771;28;20671;-70
2021/05/23 01:38:37;;;;;;;1.70;1.50;;;10.30;86.80;;;;;;2097290;28;20102;-70
2021/05/23 01:39:37;;;;;;;3.88;1.58;;;10.30;86.90;;;;;;2097251;28;20115;-70
2021/05/23 01:40:39;;;;;;;3.03;1.65;;;10.30;87.00;;;;;;2097266;28;20282;-71
2021/05/23 01:41:41;;;;;;;2.72;1.80;;;10.30;86.90;;;;;;2097311;28;20032;-70
2021/05/23 01:42:43;;;;;;;2.65;1.80;;;10.30;87.00;;;;;;2096994;28;20058;-71
2021/05/23 01:43:44;;;;;;;3.47;1.60;;;10.30;87.10;;;;;;2097198;28;20422;-70
2021/05/23 01:44:49;;;;;;;3.05;1.80;;;10.30;87.00;;;;;;2097099;28;20432;-70
2021/05/23 01:45:50;;;;;;;3.20;1.85;;;10.30;87.00;;;;;;2088187;28;20059;-70
2021/05/23 01:46:51;;;;;;;2.85;1.67;;;10.30;86.10;;;;;;2088322;28;20466;-70
2021/05/23 01:47:53;;;;;;;2.75;1.80;;;10.40;85.30;;;;;;2097733;28;20181;-70
2021/05/23 01:48:53;;;;;;;2.55;1.60;;;10.40;84.70;;;;;;2097740;28;20464;-70
2021/05/23 01:49:54;;;;;;;3.05;1.92;;;10.50;84.50;;;;;;2097565;28;20025;-70
2021/05/23 01:50:55;;;;;;;4.38;2.17;;;10.50;84.30;;;;;;2097627;28;20086;-71
2021/05/23 01:51:56;;;;;;;3.58;2.00;;;10.50;84.20;;;;;;2097457;28;20082;-70
2021/05/23 01:53:02;;;;;;;2.72;1.70;;;10.50;83.80;;;;;;2088612;28;20064;-70
2021/05/23 01:54:03;;;;;;;2.95;1.90;;;10.60;83.50;;;;;;2089706;28;20041;-70
2021/05/23 01:55:04;;;;;;;4.13;1.90;;;10.60;83.20;;;;;;2097660;28;20388;-70
2021/05/23 01:56:05;;;;;;;1.98;1.60;;;10.60;83.30;;;;;;2097020;28;20032;-70
2021/05/23 01:57:06;;;;;;;3.30;1.83;;;10.60;83.40;;;;;;2097205;28;20039;-69
2021/05/23 01:58:07;;;;;;;2.65;1.80;;;10.60;83.40;;;;;;2097096;28;20039;-70
2021/05/23 01:59:08;;;;;;;3.45;1.88;;;10.60;83.70;;;;;;2097110;28;20039;-70
2021/05/23 02:00:09;;;;;;;2.10;1.77;;;10.60;83.70;;;;;;2097217;28;20085;-70
2021/05/23 02:01:10;;;;;;;2.33;1.60;;;10.70;83.60;;;;;;2096918;28;20499;-70
2021/05/23 02:02:11;;;;;;;2.28;1.60;;;10.70;83.40;;;;;;2097021;28;20028;-70
2021/05/23 02:03:14;;;;;;;2.10;1.80;;;10.60;83.30;;;;;;2096862;28;20420;-70
2021/05/23 02:04:15;;;;;;;4.03;1.80;;;10.70;83.60;;;;;;2096927;28;20039;-70
2021/05/23 02:05:16;;;;;;;2.50;1.70;;;10.70;83.90;;;;;;2096886;28;20043;-70
2021/05/23 02:06:20;;;;;;;1.90;1.60;;;10.70;83.90;;;;;;2087554;28;20504;-70
2021/05/23 02:07:21;;;;;;;2.38;1.80;;;10.70;83.70;;;;;;2087472;28;20021;-70
2021/05/23 02:08:24;;;;;;;3.70;1.80;;;10.70;83.90;;;;;;2096947;28;20021;-70
2021/05/23 02:09:26;;;;;;;1.88;1.60;;;10.70;83.90;;;;;;2071724;28;20030;-70
2021/05/23 02:10:27;;;;;;;2.90;1.70;;;10.60;83.90;;;;;;2071900;28;20017;-69
2021/05/23 02:11:28;;;;;;;1.80;1.65;;;10.60;84.00;;;;;;2088743;28;20025;-70
2021/05/23 02:12:28;;;;;;;2.20;1.63;;;10.60;84.00;;;;;;2088670;28;20033;-70
2021/05/23 02:13:29;;;;;;;2.55;1.77;;;10.60;84.20;;;;;;2088609;28;20052;-70
2021/05/23 02:14:29;;;;;;;2.03;1.83;;;10.60;84.40;;;;;;2088815;28;20472;-71
2021/05/23 02:15:30;;;;;;;2.50;1.80;;;10.60;84.80;;;;;;2089148;28;20100;-71
2021/05/23 02:16:33;;;;;;;2.45;1.83;;;10.50;84.80;;;;;;2088605;28;20017;-70
2021/05/23 02:17:38;;;;;;;2.22;1.70;;;10.50;85.20;;;;;;2088737;28;20748;-70
2021/05/23 02:18:39;;;;;;;2.10;1.73;;;10.50;85.60;;;;;;2088816;28;20024;-70
2021/05/23 02:19:44;;;;;;;2.20;1.75;;;10.50;85.90;;;;;;2079897;28;20562;-70
2021/05/23 02:20:45;;;;;;;2.67;1.77;;;10.40;86.00;;;;;;2080566;28;20025;-69
2021/05/23 02:21:47;;;;;;;2.40;1.90;;;10.40;86.00;;;;;;2079873;28;20026;-70
2021/05/23 02:22:49;;;;;;;2.60;1.73;;;10.40;86.00;;;;;;2079963;28;20538;-69
2021/05/23 02:23:56;;;;;;;3.05;1.90;;;10.40;86.10;;;;;;2088680;28;20022;-70
2021/05/23 02:24:57;;;;;;;3.53;2.10;;;10.40;86.10;;;;;;2079726;28;20095;-70
2021/05/23 02:25:59;;;;;;;2.67;1.95;;;10.30;86.20;;;;;;2071222;28;20053;-70
2021/05/23 02:26:59;;;;;;;1.83;1.70;;;10.30;86.40;;;;;;2079903;28;20037;-69
2021/05/23 02:28:07;;;;;;;1.98;1.70;;;10.30;86.50;;;;;;2088741;28;20033;-70
2021/05/23 02:29:08;;;;;;;2.72;2.10;;;10.20;86.70;;;;;;2088716;28;20029;-70
2021/05/23 02:30:21;;;;;;;2.42;1.88;;;10.20;86.80;;;;;;2088549;28;20388;-70
2021/05/23 02:31:22;;;;;;;2.80;1.83;;;10.20;86.70;;;;;;2088652;28;20025;-70
2021/05/23 02:32:23;;;;;;;3.05;1.90;;;10.20;86.90;;;;;;2088844;28;20361;-70
2021/05/23 02:33:27;;;;;;;3.97;2.05;;;10.20;87.10;;;;;;2088531;28;20053;-70
2021/05/23 02:34:29;;;;;;;2.83;2.10;;;10.20;87.40;;;;;;2088565;28;20032;-69
2021/05/23 02:35:32;;;;;;;4.13;1.85;;;10.20;87.50;;;;;;2088627;28;20392;-70
2021/05/23 02:36:33;;;;;;;3.60;2.22;;;10.20;87.50;;;;;;2090311;28;20025;-70
2021/05/23 02:37:34;;;;;;;2.53;1.98;;;10.20;87.50;;;;;;2097171;28;20115;-69
2021/05/23 02:38:34;;;;;;;3.03;1.92;;;10.30;87.50;;;;;;2089563;28;20013;-70
2021/05/23 02:39:35;;;;;;;3.88;2.10;;;10.30;87.40;;;;;;2089643;28;20028;-70
2021/05/23 02:40:37;;;;;;;3.40;2.20;;;10.30;87.40;;;;;;2098532;28;20456;-69
2021/05/23 02:41:39;;;;;;;3.08;2.10;;;10.30;87.60;;;;;;2098600;28;20024;-69
2021/05/23 02:42:40;;;;;;;3.95;2.17;;;10.40;87.50;;;;;;2098345;28;20439;-70
2021/05/23 02:43:41;;;;;;;3.60;2.40;;;10.40;87.10;;;;;;2098458;28;20125;-69
2021/05/23 02:44:41;;;;;;;3.28;2.20;;;10.40;87.00;;;;;;2098215;28;20020;-70
2021/05/23 02:45:43;;;;;;;2.92;2.42;;;10.40;86.70;;;;;;2098350;28;20051;-70
2021/05/23 02:46:43;;;;;;;3.78;2.13;;;10.50;86.40;;;;;;2098041;28;20400;-69
2021/05/23 02:47:46;;;;;;;4.53;2.45;;;10.50;86.20;;;;;;2098410;28;20124;-69
2021/05/23 02:48:47;;;;;;;3.92;2.22;;;10.60;86.10;;;;;;2089534;28;20020;-69
2021/05/23 02:49:48;;;;;;;3.97;2.20;;;10.60;86.00;;;;;;2089693;28;20393;-69
2021/05/23 02:50:51;;;;;;;3.35;2.10;;;10.60;86.20;;;;;;2098578;28;20158;-70
2021/05/23 02:51:52;;;;;;;4.57;2.20;;;10.70;86.60;;;;;;2098471;28;20452;-69
2021/05/23 02:52:53;;;;;;;3.33;2.20;;;10.70;87.00;;;;;;2098412;28;20029;-70
2021/05/23 02:53:54;;;;;;;2.60;2.00;;;10.70;86.80;;;;;;2089507;28;20496;-69
2021/05/23 02:54:54;;;;;;;3.08;2.10;;;10.70;86.50;;;;;;2089554;28;20025;-69
2021/05/23 02:55:55;;;;;;;3.45;2.10;;;10.70;86.20;;;;;;2098014;28;20074;-71
2021/05/23 02:56:56;;;;;;;2.70;2.13;;;10.70;85.90;;;;;;2098487;28;20089;-69
2021/05/23 02:57:56;;;;;;;2.38;2.00;;;10.80;85.80;;;;;;2098239;28;20024;-69
2021/05/23 02:58:57;;;;;;;5.25;2.13;;;10.80;85.80;;;;;;2089546;28;20029;-69
2021/05/23 03:00:23;;;;;;;3.33;2.05;;;10.80;85.50;;;;;;2093137;28;20040;-69
2021/05/23 03:01:25;;;;;;;6.43;2.58;;;10.80;85.20;;;;;;2089298;28;20028;-69
2021/05/23 03:02:26;;;;;;;4.32;2.45;;;10.90;84.70;;;;;;2089930;28;20090;-70
2021/05/23 03:03:26;;;;;;;3.55;2.50;;;10.90;84.80;;;;;;2098271;28;20043;-70
2021/05/23 03:04:27;;;;;;;4.95;2.28;;;10.90;84.50;;;;;;2089606;28;20021;-69
2021/05/23 03:05:28;;;;;;;4.70;2.55;;;10.90;84.10;;;;;;2089767;28;20021;-70
2021/05/23 03:06:28;;;;;;;4.80;2.72;;;10.90;83.80;;;;;;2088491;28;20025;-69
2021/05/23 03:07:30;;;;;;;4.03;2.80;;;11.00;83.30;;;;;;2089541;28;20047;-69
2021/05/23 03:08:30;;;;;;;4.57;2.70;;;11.00;83.20;;;;;;2098761;28;20031;-70
2021/05/23 03:09:31;;;;;;;5.15;2.47;;;11.00;83.00;;;;;;2098708;28;20038;-70
2021/05/23 03:10:47;;;;;;;4.05;2.70;;;11.00;82.60;;;;;;2089834;28;20514;-70
2021/05/23 03:11:48;;;;;;;4.53;2.50;;;11.00;82.50;;;;;;2092131;28;20057;-70
2021/05/23 03:12:49;;;;;;;6.00;2.60;;;11.00;82.40;;;;;;2089726;28;20044;-70
2021/05/23 03:13:50;;;;;;;4.68;2.63;;;11.00;82.20;;;;;;2090164;28;20025;-70
2021/05/23 03:14:50;;;;;;;3.55;2.45;;;11.10;82.20;;;;;;2099353;28;20117;-70
2021/05/23 03:15:54;;;;;;;3.63;2.60;;;11.10;82.20;;;;;;2098944;28;20029;-70
2021/05/23 03:16:55;;;;;;;3.90;2.38;;;11.10;81.90;;;;;;2081471;28;20049;-68
2021/05/23 03:17:57;;;;;;;5.03;2.58;;;11.10;81.70;;;;;;2081087;28;20127;-69
2021/05/23 03:18:57;;;;;;;3.28;2.40;;;11.20;81.70;;;;;;2089419;28;20049;-69
2021/05/23 03:19:58;;;;;;;2.97;2.55;;;11.20;81.80;;;;;;2089327;28;20044;-70
2021/05/23 03:20:59;;;;;;;5.18;2.50;;;11.20;81.60;;;;;;2089254;28;20057;-69
2021/05/23 03:22:00;;;;;;;4.25;2.55;;;11.20;81.40;;;;;;2089367;28;20095;-69
2021/05/23 03:23:01;;;;;;;3.13;2.40;;;11.20;81.20;;;;;;2098236;28;20029;-69
2021/05/23 03:24:03;;;;;;;4.18;2.65;;;11.20;81.10;;;;;;2089390;28;20105;-69
2021/05/23 03:25:06;;;;;;;3.70;2.40;;;11.20;81.00;;;;;;2089308;28;20056;-69
2021/05/23 03:26:06;;;;;;;5.00;2.53;;;11.20;80.90;;;;;;2097752;28;20438;-70
2021/05/23 03:27:07;;;;;;;3.55;2.30;;;11.20;80.90;;;;;;2089280;28;20048;-70
2021/05/23 03:28:09;;;;;;;6.15;2.40;;;11.20;81.00;;;;;;2089339;28;20488;-69
2021/05/23 03:29:10;;;;;;;3.25;2.40;;;11.20;81.10;;;;;;2098043;28;20028;-70
2021/05/23 03:30:18;;;;;;;4.72;2.60;;;11.30;81.10;;;;;;2098053;28;20039;-70
2021/05/23 03:31:18;;;;;;;3.50;2.40;;;11.20;80.90;;;;;;2098410;28;20062;-70
2021/05/23 03:32:19;;;;;;;3.65;2.40;;;11.20;80.80;;;;;;2098759;28;20028;-69
2021/05/23 03:33:19;;;;;;;4.38;2.33;;;11.30;80.60;;;;;;2098394;28;20059;-69
2021/05/23 03:34:20;;;;;;;5.72;2.63;;;11.30;80.30;;;;;;2089693;28;20044;-70
2021/05/23 03:35:21;;;;;;;3.65;2.50;;;11.30;80.00;;;;;;2089960;28;20400;-70
2021/05/23 03:36:25;;;;;;;5.15;2.92;;;11.30;79.70;;;;;;2097440;28;20641;-70
2021/05/23 03:37:26;;;;;;;3.50;2.40;;;11.30;79.90;;;;;;2102564;28;20058;-70
2021/05/23 03:38:27;;;;;;;4.38;3.00;;;11.30;79.90;;;;;;2100165;28;20039;-69
2021/05/23 03:39:27;;;;;;;5.32;2.75;;;11.30;79.70;;;;;;2099193;28;20025;-70
2021/05/23 03:40:30;;;;;;;4.88;2.53;;;11.30;79.70;;;;;;2100945;28;20032;-70
2021/05/23 03:41:31;;;;;;;4.25;2.72;;;11.40;79.80;;;;;;2098581;28;20028;-71
2021/05/23 03:42:32;;;;;;;4.60;2.80;;;11.40;80.00;;;;;;2089458;28;20021;-69
2021/05/23 03:43:32;;;;;;;5.63;2.90;;;11.30;80.00;;;;;;2089159;28;20043;-70
2021/05/23 03:44:33;;;;;;;5.05;2.88;;;11.30;80.20;;;;;;2098093;28;20511;-70
2021/05/23 03:45:34;;;;;;;5.25;2.70;;;11.30;80.80;;;;;;2098626;28;20019;-69
2021/05/23 03:46:34;;;;;;;4.72;2.65;;;11.30;81.10;;;;;;2100565;28;20038;-70
2021/05/23 03:47:36;;;;;;;4.03;2.78;;;11.20;80.90;;;;;;2105459;28;20047;-70
2021/05/23 03:48:36;;;;;;;4.93;3.00;;;11.20;80.80;;;;;;2103977;28;20091;-69
2021/05/23 03:49:38;;;;;;;3.88;2.70;;;11.20;81.00;;;;;;2101840;28;20021;-69
2021/05/23 03:50:39;;;;;;;4.05;2.97;;;11.10;81.10;;;;;;2098330;28;20545;-70
2021/05/23 03:51:39;;;;;;;3.90;2.50;;;11.10;81.50;;;;;;2098137;28;20047;-69
2021/05/23 03:52:40;;;;;;;3.72;2.67;;;11.10;81.40;;;;;;2098116;28;20064;-69
2021/05/23 03:53:41;;;;;;;4.47;2.70;;;11.10;80.90;;;;;;2098167;28;20500;-70
2021/05/23 03:54:41;;;;;;;4.13;2.47;;;11.10;80.90;;;;;;2097901;28;20031;-70
2021/05/23 03:55:42;;;;;;;4.53;2.60;;;11.10;80.80;;;;;;2097862;28;20032;-70
2021/05/23 03:56:43;;;;;;;4.45;2.58;;;11.10;80.50;;;;;;2088657;28;20075;-70
2021/05/23 03:57:44;;;;;;;3.75;2.60;;;11.10;80.30;;;;;;2088967;28;20455;-70
2021/05/23 03:58:44;;;;;;;3.58;2.50;;;11.20;80.30;;;;;;2088900;28;20207;-69
2021/05/23 03:59:45;;;;;;;4.13;2.65;;;11.20;80.10;;;;;;2089121;28;20044;-70
2021/05/23 04:00:46;;;;;;;4.53;2.60;;;11.20;80.00;;;;;;2097997;28;20099;-70
2021/05/23 04:01:47;;;;;;;5.95;2.92;;;11.20;79.90;;;;;;2088973;28;20048;-69
2021/05/23 04:02:51;;;;;;;6.10;2.67;;;11.20;79.90;;;;;;2089034;28;20756;-69
2021/05/23 04:03:57;;;;;;;6.15;2.70;;;11.20;80.00;;;;;;2098046;28;20708;-69
2021/05/23 04:04:58;;;;;;;3.05;2.60;;;11.20;80.00;;;;;;2088833;28;20029;-70
2021/05/23 04:05:59;;;;;;;4.38;2.70;;;11.20;79.90;;;;;;2080243;28;20061;-70
2021/05/23 04:06:59;;;;;;;4.60;2.50;;;11.20;79.50;;;;;;2083500;28;20061;-69
2021/05/23 04:08:00;;;;;;;3.95;2.60;;;11.20;79.20;;;;;;2094156;28;20051;-69
2021/05/23 04:09:01;;;;;;;5.03;2.38;;;11.20;79.20;;;;;;2080540;28;20060;-70
2021/05/23 04:10:03;;;;;;;4.20;2.53;;;11.20;79.40;;;;;;2080800;28;20091;-69
2021/05/23 04:11:09;;;;;;;4.65;2.35;;;11.20;79.00;;;;;;2097860;28;20040;-70
2021/05/23 04:12:14;;;;;;;3.17;2.20;;;11.30;79.10;;;;;;2097883;28;20488;-70
2021/05/23 04:13:15;;;;;;;3.42;2.33;;;11.30;79.10;;;;;;2097723;28;20383;-69
2021/05/23 04:14:16;;;;;;;3.97;2.33;;;11.30;78.80;;;;;;2097751;28;20036;-70
2021/05/23 04:15:18;;;;;;;3.33;2.00;;;11.30;76.60;;;;;;2097829;28;20059;-69
2021/05/23 04:16:19;;;;;;;4.20;2.30;;;11.30;76.30;;;;;;2088433;28;20044;-69
2021/05/23 04:17:19;;;;;;;3.78;2.22;;;11.40;76.30;;;;;;2080644;28;20410;-69
2021/05/23 04:18:20;;;;;;;3.97;2.05;;;11.40;77.10;;;;;;2088871;28;20423;-70
2021/05/23 04:19:20;;;;;;;2.78;2.03;;;11.50;77.50;;;;;;2088856;28;20032;-69
2021/05/23 04:20:24;;;;;;;2.72;1.90;;;11.50;77.00;;;;;;2097607;28;20024;-70
2021/05/23 04:21:24;;;;;;;4.18;2.13;;;11.60;76.70;;;;;;2097719;28;20029;-70
2021/05/23 04:22:25;;;;;;;3.65;2.10;;;11.60;76.20;;;;;;2097760;28;20112;-69
2021/05/23 04:23:29;;;;;;;3.50;1.95;;;11.70;76.10;;;;;;2088688;28;20032;-70
2021/05/23 04:24:34;;;;;;;3.35;1.80;;;11.80;76.00;;;;;;2072535;28;20126;-70
2021/05/23 04:25:35;;;;;;;2.95;1.77;;;11.80;75.60;;;;;;2081655;28;20029;-70
2021/05/23 04:26:35;;;;;;;2.38;1.65;;;11.90;75.90;;;;;;2097377;28;20035;-70
2021/05/23 04:27:36;;;;;;;2.33;1.60;;;11.90;75.30;;;;;;2097629;28;20063;-70
2021/05/23 04:28:37;;;;;;;3.17;1.58;;;12.00;75.20;;;;;;2097683;28;20028;-70
2021/05/23 04:29:38;;;;;;;2.63;1.85;;;12.00;75.00;;;;;;2097725;28;20021;-70
2021/05/23 04:30:38;;;;;;;3.40;1.80;;;12.10;75.00;;;;;;2097759;28;20365;-70
2021/05/23 04:31:39;;;;;;;2.80;1.80;;;12.10;74.70;;;;;;2097641;28;20039;-70
2021/05/23 04:32:40;;;;;;;2.72;1.92;;;12.20;74.20;;;;;;2097384;28;20086;-69
2021/05/23 04:33:40;;;;;;;3.05;1.73;;;12.20;74.10;;;;;;2097435;28;20024;-69
2021/05/23 04:34:41;;;;;;;2.47;1.58;;;12.20;74.00;;;;;;2097563;28;20539;-70
2021/05/23 04:35:43;;;;;;;3.28;1.77;;;12.20;74.10;;;;;;2088472;28;20452;-70
2021/05/23 04:36:44;;;;;;;2.35;1.60;;;12.30;74.00;;;;;;2087604;28;20029;-69
2021/05/23 04:37:45;;;;;;;2.60;1.60;;;12.30;73.50;;;;;;2097409;28;20020;-70
2021/05/23 04:38:48;;;;;;;3.08;1.60;;;12.30;73.30;;;;;;2088603;28;20093;-70
2021/05/23 04:39:49;;;;;;;2.10;1.63;;;12.30;72.90;;;;;;2088926;28;20021;-70
2021/05/23 04:40:49;;;;;;;3.38;1.70;;;12.30;72.70;;;;;;2097499;28;20024;-70
2021/05/23 04:41:51;;;;;;;3.15;1.75;;;12.30;72.60;;;;;;2097493;28;20440;-69
2021/05/23 04:42:52;;;;;;;2.47;1.63;;;12.40;72.80;;;;;;2097397;28;20070;-69
2021/05/23 04:43:52;;;;;;;2.63;1.60;;;12.40;72.80;;;;;;2097518;28;20024;-70
2021/05/23 04:44:53;;;;;;;2.97;1.60;;;12.40;72.70;;;;;;2088415;28;20091;-70
2021/05/23 04:45:54;;;;;;;3.42;1.70;;;12.50;72.40;;;;;;2088282;28;20384;-70
2021/05/23 04:46:54;;;;;;;2.15;1.52;;;12.50;72.00;;;;;;2097422;28;20028;-70
2021/05/23 04:47:55;;;;;;;1.65;1.33;;;12.50;71.80;;;;;;2097324;28;20377;-70
2021/05/23 04:48:56;;;;;;;3.28;1.52;;;12.70;72.00;;;;;;2097404;28;20055;-70
2021/05/23 04:49:57;;;;;;;2.25;1.58;;;12.90;71.90;;;;;;2097402;28;20223;-70
2021/05/23 04:50:57;;;;;;;2.95;1.60;;;13.00;71.20;;;;;;2097398;28;20024;-70
2021/05/23 04:51:58;;;;;;;2.67;1.60;;;13.30;70.40;;;;;;2097415;28;20024;-70
2021/05/23 04:52:59;;;;;;;2.85;1.55;;;13.60;69.50;;;;;;2097411;28;20099;-70
2021/05/23 04:53:59;;;;;;;1.75;1.35;;;13.90;68.30;;;;;;2097387;28;20060;-70
2021/05/23 04:55:00;;;;;;;2.33;1.60;;;14.30;67.20;;;;;;2088570;28;20025;-69
2021/05/23 04:56:01;;;;;;;3.10;1.70;;;14.80;64.80;;;;;;2079924;28;20038;-70
2021/05/23 04:57:02;;;;;;;2.45;1.40;;;15.30;61.70;;;;;;2088575;28;20104;-70
2021/05/23 04:58:03;;;;;;;2.63;1.48;;;15.80;59.60;;;;;;2097371;28;20106;-70
2021/05/23 04:59:04;;;;;;;2.35;1.50;;;16.20;58.00;;;;;;2097407;28;20036;-70
2021/05/23 05:00:09;;;;;;;2.40;1.45;;;16.70;57.00;;;;;;2097369;28;20115;-70
2021/05/23 05:01:10;;;;;;;1.85;1.33;;;17.20;55.60;;;;;;2096599;28;20029;-70
2021/05/23 05:02:11;;;;;;;4.60;1.52;;;17.70;54.30;;;;;;2088276;28;20078;-68
2021/05/23 05:03:12;;;;;;;2.83;1.70;;;18.00;53.00;;;;;;2088376;28;20478;-69
2021/05/23 05:04:12;;;;;;;3.40;1.60;;;18.20;52.20;;;;;;2097317;28;20032;-70
2021/05/23 05:05:13;;;;;;;2.92;1.48;;;18.30;51.70;;;;;;2097192;28;20040;-70
2021/05/23 05:06:14;;;;;;;2.60;1.80;;;18.40;51.40;;;;;;2096823;28;20024;-70
2021/05/23 05:07:15;;;;;;;5.13;2.20;;;18.40;51.00;;;;;;2087711;28;20029;-70
2021/05/23 05:08:16;;;;;;;5.35;2.28;;;18.40;50.80;;;;;;2088462;28;20753;-68
2021/05/23 05:09:17;;;;;;;4.68;2.33;;;18.50;50.90;;;;;;2097092;28;20081;-68
2021/05/23 05:10:18;;;;;;;4.85;2.38;;;18.60;51.50;;;;;;2097258;28;20571;-68
2021/05/23 05:11:18;;;;;;;4.15;1.90;;;18.70;50.80;;;;;;2097267;28;20017;-68
2021/05/23 05:12:20;;;;;;;4.78;1.70;;;18.80;50.30;;;;;;2097276;28;20103;-68
2021/05/23 05:13:21;;;;;;;3.75;1.50;;;18.60;50.00;;;;;;2097302;28;20030;-68
2021/05/23 05:14:22;;;;;;;3.85;1.30;;;18.50;49.80;;;;;;2088334;28;20480;-68
2021/05/23 05:15:22;;;;;;;3.78;1.70;;;18.50;50.30;;;;;;2088597;28;20083;-69
2021/05/23 05:16:23;;;;;;;3.05;1.35;;;18.60;50.90;;;;;;2088037;28;20124;-69
2021/05/23 05:17:24;;;;;;;3.08;1.23;;;18.70;50.20;;;;;;2088347;28;20114;-68
2021/05/23 05:18:24;;;;;;;3.28;1.30;;;18.60;48.80;;;;;;2097167;28;20024;-68
2021/05/23 05:19:25;;;;;;;4.15;1.38;;;18.60;48.70;;;;;;2097272;28;20044;-68
2021/05/23 05:20:27;;;;;;;3.10;1.10;;;18.50;49.00;;;;;;2088500;28;20024;-68
2021/05/23 05:21:27;;;;;;;3.08;1.20;;;18.20;48.70;;;;;;2088428;28;20052;-67
2021/05/23 05:22:28;;;;;;;3.58;1.50;;;18.20;49.70;;;;;;2079977;28;20044;-67
2021/05/23 05:23:29;;;;;;;3.92;1.27;;;18.00;49.80;;;;;;2080016;28;20040;-67
2021/05/23 05:24:29;;;;;;;3.10;1.15;;;17.80;50.20;;;;;;2088310;28;20033;-67